Time;durP1;ratioP1;P1;durP2;ratioP2;P2;SDS_P1;SDS_P2;PMS_P1;PMS_P2;Temp;Humidity;BMP_temperature;BMP_pressure;BME280_temperature;BME280_humidity;BME280_pressure;Samples;Min_cycle;Max_cycle;Signal;HPM_P1;HPM_P2
2021/07/30 00:01:42;;;;;;;6.38;5.80;;;;;;;21.21;72.56;95312.78;5035713;28;20296;-85
2021/07/30 00:04:08;;;;;;;6.10;5.60;;;;;;;21.12;73.10;95307.19;5035704;28;20230;-86
2021/07/30 00:06:35;;;;;;;6.30;5.70;;;;;;;21.02;73.14;95307.09;5035273;28;20230;-86
2021/07/30 00:09:01;;;;;;;8.45;5.95;;;;;;;20.96;72.95;95303.66;5035073;28;20210;-86
2021/07/30 00:11:29;;;;;;;6.13;5.50;;;;;;;20.91;73.79;95305.44;5023947;28;20257;-86
2021/07/30 00:13:56;;;;;;;6.95;5.82;;;;;;;20.88;74.27;95306.72;5015576;28;20218;-86
2021/07/30 00:16:22;;;;;;;5.68;4.93;;;;;;;20.92;73.54;95307.03;5027679;28;20229;-86
2021/07/30 00:18:49;;;;;;;5.50;5.03;;;;;;;20.99;72.89;95311.00;5035502;28;20202;-86
2021/07/30 00:21:15;;;;;;;5.93;5.43;;;;;;;20.91;73.69;95305.44;5035271;28;20205;-86
2021/07/30 00:23:42;;;;;;;6.20;5.68;;;;;;;20.91;73.04;95302.81;5034682;28;20206;-86
2021/07/30 00:26:08;;;;;;;6.15;5.63;;;;;;;20.86;73.91;95303.56;5035262;28;20244;-86
2021/07/30 00:28:36;;;;;;;5.80;5.30;;;;;;;20.84;74.37;95308.25;5034680;28;20210;-85
2021/07/30 00:31:02;;;;;;;5.82;5.32;;;;;;;20.92;73.75;95309.63;5033905;28;20731;-85
2021/07/30 00:33:29;;;;;;;5.97;5.40;;;;;;;20.91;73.87;95305.44;5033094;28;20641;-85
2021/07/30 00:35:56;;;;;;;6.10;5.50;;;;;;;20.90;73.40;95302.03;5033785;28;20202;-85
2021/07/30 00:38:22;;;;;;;6.18;5.68;;;;;;;20.87;74.18;95301.72;5033110;28;20198;-85
2021/07/30 00:40:49;;;;;;;6.00;5.40;;;;;;;20.84;73.91;95302.22;5032736;28;20684;-84
2021/07/30 00:43:15;;;;;;;5.93;5.40;;;;;;;20.76;74.19;95298.25;5033169;28;20272;-84
2021/07/30 00:45:43;;;;;;;6.68;5.50;;;;;;;20.80;74.63;95298.50;5033308;28;20226;-84
2021/07/30 00:48:10;;;;;;;7.18;5.72;;;;;;;20.84;74.32;95305.63;5033391;28;20882;-85
2021/07/30 00:50:36;;;;;;;6.75;5.28;;;;;;;20.84;74.38;95304.84;5033805;28;20201;-86
2021/07/30 00:53:03;;;;;;;5.70;5.10;;;;;;;20.93;73.31;95304.16;5033629;28;20264;-85
2021/07/30 00:55:29;;;;;;;5.80;5.32;;;;;;;20.99;72.83;95308.38;5033660;28;20226;-85
2021/07/30 00:57:56;;;;;;;6.68;5.63;;;;;;;21.00;72.83;95302.09;5033323;28;20754;-85
2021/07/30 01:00:23;;;;;;;5.70;5.13;;;;;;;21.00;72.92;95301.31;5033401;28;20205;-85
2021/07/30 01:02:50;;;;;;;6.07;5.45;;;;;;;21.03;72.64;95311.28;5032606;28;20213;-84
2021/07/30 01:05:17;;;;;;;6.50;5.00;;;;;;;21.09;72.43;95312.13;5032126;28;20230;-85
2021/07/30 01:07:44;;;;;;;5.85;4.93;;;;;;;21.11;71.61;95315.31;5032781;28;20774;-85
2021/07/30 01:10:11;;;;;;;5.78;5.03;;;;;;;21.01;72.11;95311.53;5031520;28;20201;-85
2021/07/30 01:12:37;;;;;;;5.50;5.00;;;;;;;20.99;72.30;95308.38;5013505;28;20210;-85
2021/07/30 01:15:05;;;;;;;5.40;4.90;;;;;;;20.99;72.74;95304.97;5014067;28;20226;-86
2021/07/30 01:17:31;;;;;;;5.47;5.03;;;;;;;20.91;73.35;95306.22;5032520;28;20206;-85
2021/07/30 01:20:03;;;;;;;5.82;5.20;;;;;;;20.89;73.42;95310.91;5032455;28;20205;-86
2021/07/30 01:22:32;;;;;;;5.97;5.05;;;;;;;20.84;73.69;95307.44;5032191;28;20228;-84
2021/07/30 01:25:00;;;;;;;6.97;5.22;;;;;;;20.81;73.74;95295.66;5032232;28;20230;-84
2021/07/30 01:27:27;;;;;;;5.22;4.82;;;;;;;20.87;73.57;95291.25;5032925;28;20233;-86
2021/07/30 01:29:53;;;;;;;6.18;5.38;;;;;;;20.85;73.62;95301.19;5032466;28;20609;-84
2021/07/30 01:32:20;;;;;;;6.75;5.38;;;;;;;20.81;73.79;95298.25;5033116;28;20206;-86
2021/07/30 01:34:47;;;;;;;5.90;5.30;;;;;;;20.65;75.20;95302.56;5032489;28;20280;-86
2021/07/30 01:37:13;;;;;;;5.90;5.40;;;;;;;20.68;74.58;95289.00;5032264;28;20197;-85
2021/07/30 01:39:40;;;;;;;5.82;5.30;;;;;;;20.71;74.41;95297.38;5032241;28;20202;-85
2021/07/30 01:42:07;;;;;;;6.13;5.32;;;;;;;20.72;75.05;95285.88;5032369;28;20213;-84
2021/07/30 01:44:34;;;;;;;6.50;5.85;;;;;;;20.70;75.51;95293.97;5031738;28;20229;-85
2021/07/30 01:47:00;;;;;;;6.20;5.60;;;;;;;20.64;75.91;95289.72;5032042;28;20638;-84
2021/07/30 01:49:27;;;;;;;6.53;5.20;;;;;;;20.69;75.40;95281.94;5031839;28;20210;-83
2021/07/30 01:51:53;;;;;;;7.28;5.80;;;;;;;20.63;75.69;95277.69;5031982;28;20262;-83
2021/07/30 01:54:20;;;;;;;7.57;5.85;;;;;;;20.54;76.66;95276.56;5032059;28;20275;-85
2021/07/30 01:56:46;;;;;;;6.25;5.65;;;;;;;20.57;76.42;95289.16;5031957;28;20194;-81
2021/07/30 01:59:14;;;;;;;5.90;5.40;;;;;;;20.53;76.71;95290.66;5032346;28;20202;-84
2021/07/30 02:01:41;;;;;;;5.55;5.00;;;;;;;20.49;77.01;95292.97;5032433;28;20194;-86
2021/07/30 02:04:07;;;;;;;6.45;5.70;;;;;;;20.61;76.28;95291.00;5031768;28;20222;-81
2021/07/30 02:06:34;;;;;;;8.80;5.70;;;;;;;20.66;76.24;95293.69;5031708;28;20238;-85
2021/07/30 02:09:00;;;;;;;6.30;5.35;;;;;;;20.67;75.69;95300.50;5031737;28;20699;-85
2021/07/30 02:11:27;;;;;;;5.80;5.30;;;;;;;20.67;75.59;95297.88;5022094;28;20218;-86
2021/07/30 02:16:39;;;;;;;5.80;5.28;;;;;;;20.61;75.23;95303.28;5025491;28;20209;-85
2021/07/30 02:19:05;;;;;;;5.60;5.20;;;;;;;20.57;75.54;95308.25;5031784;28;20206;-85
2021/07/30 02:21:32;;;;;;;5.70;5.20;;;;;;;20.50;75.81;95302.41;5031608;28;20666;-85
2021/07/30 02:23:59;;;;;;;5.68;5.28;;;;;;;20.47;76.15;95307.31;5031110;28;20252;-84
2021/07/30 02:26:25;;;;;;;6.28;5.68;;;;;;;20.52;75.63;95300.34;5031198;28;20205;-84
2021/07/30 02:28:54;;;;;;;5.15;4.75;;;;;;;20.50;75.91;95306.84;5031595;28;20209;-85
2021/07/30 02:31:21;;;;;;;5.70;5.20;;;;;;;20.54;75.54;95313.19;5031290;28;20592;-85
2021/07/30 02:33:48;;;;;;;5.70;5.20;;;;;;;20.50;75.88;95328.56;5030488;28;20206;-85
2021/07/30 02:36:15;;;;;;;6.13;5.53;;;;;;;20.47;75.42;95328.25;5032318;28;20213;-83
2021/07/30 02:38:41;;;;;;;6.25;5.65;;;;;;;20.38;76.24;95321.88;5026806;28;20202;-85
2021/07/30 02:41:08;;;;;;;5.53;5.13;;;;;;;20.39;76.23;95313.00;5025135;28;20202;-82
2021/07/30 02:43:35;;;;;;;5.50;5.10;;;;;;;20.43;75.57;95314.06;5031540;28;20206;-84
2021/07/30 02:46:01;;;;;;;5.88;5.38;;;;;;;20.41;76.28;95318.75;5031681;28;20206;-84
2021/07/30 02:48:27;;;;;;;5.47;4.97;;;;;;;20.38;75.99;95327.91;5031882;28;20222;-83
2021/07/30 02:50:55;;;;;;;6.47;5.20;;;;;;;20.35;76.09;95326.53;5031859;28;20202;-86
2021/07/30 02:53:22;;;;;;;6.30;5.68;;;;;;;20.30;76.76;95328.28;5030715;28;20202;-83
2021/07/30 02:55:49;;;;;;;5.82;5.30;;;;;;;20.25;76.79;95323.78;5030743;28;20225;-82
2021/07/30 02:58:15;;;;;;;5.72;5.03;;;;;;;20.25;76.83;95325.59;5030948;28;20233;-83
2021/07/30 03:00:42;;;;;;;6.18;5.60;;;;;;;20.29;77.22;95329.31;5031862;28;20620;-85
2021/07/30 03:03:08;;;;;;;6.90;5.72;;;;;;;20.29;76.68;95334.56;5031276;28;20202;-84
2021/07/30 03:05:35;;;;;;;6.72;5.85;;;;;;;20.29;76.78;95340.56;5030615;28;20229;-86
2021/07/30 03:08:02;;;;;;;9.70;5.95;;;;;;;20.27;76.83;95344.47;5030780;28;20229;-84
2021/07/30 03:10:29;;;;;;;6.18;5.50;;;;;;;20.25;77.05;95329.00;5027422;28;20187;-85
2021/07/30 03:12:55;;;;;;;6.65;6.05;;;;;;;20.20;77.79;95338.63;5010817;28;20261;-85
2021/07/30 03:15:22;;;;;;;6.65;5.97;;;;;;;20.20;77.94;95344.66;5014579;28;20663;-84
2021/07/30 03:17:48;;;;;;;6.85;6.15;;;;;;;20.09;78.52;95329.84;5031352;28;20565;-85
2021/07/30 03:20:15;;;;;;;6.60;6.00;;;;;;;20.10;77.92;95336.66;5031586;28;20206;-86
2021/07/30 03:22:41;;;;;;;6.47;5.97;;;;;;;20.11;77.44;95329.63;5032061;28;20209;-85
2021/07/30 03:25:10;;;;;;;6.47;5.95;;;;;;;20.10;78.09;95338.50;5031659;28;20233;-85
2021/07/30 03:27:36;;;;;;;6.57;6.07;;;;;;;20.19;77.08;95342.28;5031560;28;20251;-85
2021/07/30 03:30:03;;;;;;;6.53;5.80;;;;;;;20.24;76.87;95344.94;5031090;28;20213;-84
2021/07/30 03:32:30;;;;;;;6.20;5.60;;;;;;;20.22;77.17;95353.03;5030892;28;20198;-86
2021/07/30 03:34:56;;;;;;;6.50;5.97;;;;;;;20.22;76.33;95353.03;5030283;28;20245;-86
2021/07/30 03:37:22;;;;;;;6.53;5.95;;;;;;;20.23;75.84;95344.16;5030032;28;20225;-86
2021/07/30 03:39:49;;;;;;;7.13;6.10;;;;;;;20.24;75.52;95353.56;5030735;28;20399;-84
2021/07/30 03:42:17;;;;;;;10.15;6.15;;;;;;;20.18;75.30;95344.09;5030931;28;20213;-85
2021/07/30 03:44:43;;;;;;;6.43;5.88;;;;;;;20.15;75.17;95339.34;5031836;28;20225;-86
2021/07/30 03:47:10;;;;;;;6.25;5.75;;;;;;;20.12;75.53;95344.28;5034847;28;20237;-85
2021/07/30 03:49:36;;;;;;;6.68;6.10;;;;;;;19.88;76.52;95335.84;5034006;28;20263;-84
2021/07/30 03:52:03;;;;;;;7.10;6.35;;;;;;;19.84;76.48;95335.53;5033993;28;20217;-85
2021/07/30 03:54:29;;;;;;;6.95;6.35;;;;;;;19.69;77.98;95337.13;5034174;28;20218;-84
2021/07/30 03:56:56;;;;;;;7.00;6.30;;;;;;;19.68;77.85;95341.56;5034609;28;20733;-85
2021/07/30 03:59:23;;;;;;;7.68;6.55;;;;;;;19.75;76.43;95349.25;5034589;28;20206;-86
2021/07/30 04:01:50;;;;;;;9.57;6.65;;;;;;;19.78;76.39;95351.38;5035107;28;20205;-85
2021/07/30 04:04:17;;;;;;;7.15;6.43;;;;;;;19.79;76.35;95348.53;5034852;28;20237;-84
2021/07/30 04:06:44;;;;;;;6.90;6.20;;;;;;;19.88;75.86;95341.06;5035108;28;20226;-85
2021/07/30 04:09:11;;;;;;;7.05;6.32;;;;;;;19.83;75.78;95339.16;5035791;28;20194;-84
2021/07/30 04:11:38;;;;;;;7.15;6.28;;;;;;;19.80;76.11;95337.06;5021930;28;20195;-82
2021/07/30 04:14:05;;;;;;;7.07;6.22;;;;;;;19.82;75.46;95345.41;5014640;28;20266;-83
2021/07/30 04:16:34;;;;;;;7.40;6.32;;;;;;;19.85;74.66;95349.38;5027623;28;20232;-86
2021/07/30 04:19:00;;;;;;;7.65;6.53;;;;;;;19.84;74.44;95338.13;5033536;28;20768;-82
2021/07/30 04:21:27;;;;;;;6.75;6.07;;;;;;;19.81;74.59;95336.03;5034269;28;20211;-83
2021/07/30 04:23:53;;;;;;;6.65;6.05;;;;;;;19.81;74.38;95338.66;5033901;28;20249;-86
2021/07/30 04:26:20;;;;;;;6.82;6.22;;;;;;;19.84;74.66;95338.13;5035010;28;20229;-85
2021/07/30 04:28:46;;;;;;;7.38;6.68;;;;;;;19.76;74.50;95335.16;5038009;28;20272;-86
2021/07/30 04:31:13;;;;;;;6.47;5.97;;;;;;;19.86;74.38;95341.31;5041154;28;20827;-86
2021/07/30 04:33:41;;;;;;;6.97;6.35;;;;;;;19.94;73.37;95346.13;5041781;28;20209;-82
2021/07/30 04:36:13;;;;;;;7.28;6.55;;;;;;;19.96;72.90;95331.00;5040768;28;20213;-82
2021/07/30 04:38:40;;;;;;;8.00;6.80;;;;;;;19.95;73.40;95333.88;5040334;28;20633;-86
2021/07/30 04:41:06;;;;;;;8.13;6.28;;;;;;;19.92;73.77;95342.97;5033926;28;20202;-86
2021/07/30 04:43:32;;;;;;;7.32;6.57;;;;;;;20.00;73.33;95341.78;5025122;28;20213;-86
2021/07/30 04:45:59;;;;;;;6.38;5.88;;;;;;;20.04;72.02;95337.63;5026065;28;20593;-86
2021/07/30 04:48:25;;;;;;;7.55;6.70;;;;;;;20.11;71.69;95340.06;5029659;28;20218;-86
2021/07/30 04:50:54;;;;;;;7.40;6.15;;;;;;;20.14;71.80;95327.31;5025619;28;20670;-86
2021/07/30 04:53:20;;;;;;;6.93;6.22;;;;;;;20.13;72.10;95323.13;5030720;28;20249;-86
2021/07/30 04:55:46;;;;;;;6.50;5.90;;;;;;;20.21;72.03;95319.28;5026799;28;20628;-85
2021/07/30 04:58:13;;;;;;;7.32;6.63;;;;;;;20.31;71.47;95314.19;5030402;28;20206;-85
2021/07/30 05:00:39;;;;;;;6.40;5.90;;;;;;;20.39;70.62;95323.47;5022863;28;20941;-86
2021/07/30 05:03:06;;;;;;;7.38;6.25;;;;;;;20.44;70.61;95326.13;5022390;28;20666;-86
2021/07/30 05:05:32;;;;;;;7.18;6.10;;;;;;;20.50;71.05;95327.78;5021820;28;20281;-86
2021/07/30 05:08:00;;;;;;;7.00;6.40;;;;;;;20.50;71.35;95330.38;5020213;28;20214;-86
2021/07/30 05:10:26;;;;;;;7.00;6.30;;;;;;;20.59;70.92;95321.09;5024447;28;20206;-85
2021/07/30 05:12:53;;;;;;;10.98;7.18;;;;;;;20.47;71.51;95318.59;5019031;28;20657;-84
2021/07/30 05:15:19;;;;;;;11.93;10.75;;;;;;;20.56;70.66;95317.13;5026445;28;20241;-85
2021/07/30 05:17:46;;;;;;;7.78;7.07;;;;;;;20.57;70.76;95315.31;5025762;28;20207;-85
2021/07/30 05:20:12;;;;;;;7.55;6.68;;;;;;;20.58;70.50;95324.72;5014535;28;20230;-85
2021/07/30 05:22:40;;;;;;;8.05;6.50;;;;;;;20.71;70.20;95334.81;5014756;28;20209;-85
2021/07/30 05:25:10;;;;;;;7.55;6.85;;;;;;;20.82;69.48;95330.47;5019296;28;20229;-84
2021/07/30 05:27:37;;;;;;;7.28;6.65;;;;;;;20.92;69.51;95320.91;5024245;28;20218;-81
2021/07/30 05:30:03;;;;;;;7.35;6.55;;;;;;;20.88;70.09;95311.94;5020444;28;20210;-83
2021/07/30 05:32:30;;;;;;;11.07;6.65;;;;;;;20.95;68.72;95322.22;5030485;28;20233;-86
2021/07/30 05:34:56;;;;;;;7.20;6.40;;;;;;;21.09;68.35;95320.78;5026965;28;20224;-85
2021/07/30 05:37:22;;;;;;;7.53;6.82;;;;;;;21.11;67.64;95323.16;5029723;28;20213;-85
2021/07/30 05:39:49;;;;;;;7.45;6.75;;;;;;;21.00;68.06;95328.28;5022765;28;20202;-85
2021/07/30 05:42:17;;;;;;;7.13;6.22;;;;;;;21.09;67.29;95320.78;5028980;28;20206;-85
2021/07/30 05:44:43;;;;;;;6.82;6.13;;;;;;;21.21;66.84;95318.03;5033337;28;20245;-85
2021/07/30 05:47:11;;;;;;;7.28;6.57;;;;;;;21.14;67.58;95320.84;5032761;28;20206;-85
2021/07/30 05:49:38;;;;;;;8.55;6.72;;;;;;;21.13;67.30;95323.69;5033029;28;20756;-85
2021/07/30 05:52:05;;;;;;;6.85;6.10;;;;;;;21.18;67.43;95321.09;5033404;28;20208;-86
2021/07/30 05:54:32;;;;;;;7.18;6.47;;;;;;;21.25;66.79;95321.72;5033890;28;20606;-85
2021/07/30 05:56:58;;;;;;;7.00;6.28;;;;;;;21.34;66.80;95320.25;5028022;28;20206;-85
2021/07/30 05:59:28;;;;;;;7.80;6.30;;;;;;;21.42;66.82;95324.22;5025186;28;20202;-85
2021/07/30 06:01:54;;;;;;;8.00;6.30;;;;;;;21.49;66.82;95324.81;5032656;28;20660;-85
2021/07/30 06:04:21;;;;;;;6.88;6.18;;;;;;;21.53;66.83;95315.41;5013310;28;20230;-85
2021/07/30 06:06:48;;;;;;;10.00;5.72;;;;;;;21.62;66.34;95325.16;5013465;28;20321;-86
2021/07/30 06:09:14;;;;;;;6.65;5.88;;;;;;;21.77;66.94;95310.56;5033369;28;20234;-86
2021/07/30 06:11:41;;;;;;;9.25;6.25;;;;;;;21.81;65.32;95317.69;5028846;28;20198;-85
2021/07/30 06:14:08;;;;;;;6.55;5.95;;;;;;;21.68;65.23;95312.88;5018623;28;20578;-84
2021/07/30 06:16:35;;;;;;;6.43;5.80;;;;;;;21.71;65.13;95315.81;5017001;28;20569;-85
2021/07/30 06:19:02;;;;;;;6.47;5.97;;;;;;;21.78;65.20;95317.38;5021918;28;20205;-86
2021/07/30 06:21:32;;;;;;;6.25;5.72;;;;;;;21.87;65.23;95310.66;5024936;28;20210;-87
2021/07/30 06:24:02;;;;;;;7.18;5.85;;;;;;;21.92;65.26;95308.06;5022975;28;20306;-85
2021/07/30 06:26:37;;;;;;;9.55;6.18;;;;;;;21.99;65.09;95313.84;5027796;28;20198;-85
2021/07/30 06:29:05;;;;;;;6.63;5.97;;;;;;;21.93;65.19;95305.19;5034022;28;20236;-85
2021/07/30 06:31:31;;;;;;;6.75;6.10;;;;;;;21.97;65.73;95303.59;5013931;28;20206;-84
2021/07/30 06:34:05;;;;;;;9.80;6.40;;;;;;;22.04;64.92;95312.06;5013512;28;20241;-83
2021/07/30 06:36:34;;;;;;;6.63;5.82;;;;;;;22.12;64.93;95317.91;5013943;28;20265;-85
2021/07/30 06:39:05;;;;;;;5.97;5.47;;;;;;;22.18;65.08;95320.25;5014936;28;20289;-83
2021/07/30 06:41:32;;;;;;;7.25;6.07;;;;;;;22.20;65.25;95323.44;5013921;28;20230;-83
2021/07/30 06:44:06;;;;;;;7.10;6.40;;;;;;;22.27;63.89;95321.38;5013962;28;20238;-83
2021/07/30 06:46:32;;;;;;;5.95;5.38;;;;;;;22.40;63.91;95323.50;5029062;28;20206;-83
2021/07/30 06:49:04;;;;;;;6.10;5.60;;;;;;;22.46;63.50;95319.09;5033617;28;20222;-83
2021/07/30 06:51:32;;;;;;;6.90;5.85;;;;;;;22.56;63.42;95326.19;5031965;28;20213;-83
2021/07/30 06:53:59;;;;;;;5.78;5.28;;;;;;;22.60;62.65;95325.41;5031250;28;20228;-83
2021/07/30 06:56:25;;;;;;;6.10;5.50;;;;;;;22.64;62.13;95315.19;5020021;28;20209;-83
2021/07/30 06:58:51;;;;;;;8.05;5.75;;;;;;;22.62;62.18;95314.66;5032449;28;20293;-85
2021/07/30 07:01:18;;;;;;;6.45;5.95;;;;;;;22.68;61.77;95314.44;5032118;28;20202;-85
2021/07/30 07:03:44;;;;;;;7.25;6.10;;;;;;;22.74;61.86;95316.00;5032232;28;20205;-85
2021/07/30 07:06:19;;;;;;;8.40;6.78;;;;;;;22.76;62.37;95313.13;5031228;28;20665;-85
2021/07/30 07:08:46;;;;;;;7.05;6.50;;;;;;;22.74;63.15;95312.59;5031911;28;20217;-85
2021/07/30 07:11:13;;;;;;;7.15;6.53;;;;;;;22.87;63.00;95298.22;5022274;28;20199;-85
2021/07/30 07:13:41;;;;;;;6.95;6.32;;;;;;;22.92;63.37;95304.25;5011074;28;20602;-86
2021/07/30 07:16:08;;;;;;;8.65;6.22;;;;;;;23.00;63.65;95305.59;5011126;28;20270;-85
2021/07/30 07:18:35;;;;;;;7.05;6.45;;;;;;;23.07;63.98;95308.75;5013473;28;20203;-86
2021/07/30 07:21:01;;;;;;;10.07;6.28;;;;;;;23.11;64.09;95306.38;5015022;28;20207;-85
2021/07/30 07:23:29;;;;;;;7.72;6.30;;;;;;;23.18;64.99;95307.69;5033628;28;20620;-86
2021/07/30 07:25:55;;;;;;;8.63;6.28;;;;;;;23.26;64.10;95303.78;5035725;28;20217;-85
2021/07/30 07:28:22;;;;;;;8.85;5.90;;;;;;;23.42;64.75;95292.19;5035575;28;20222;-85
2021/07/30 07:30:50;;;;;;;7.47;6.32;;;;;;;23.52;64.60;95297.47;5018802;28;20752;-86
2021/07/30 07:33:17;;;;;;;6.40;5.90;;;;;;;23.52;63.54;95297.47;5015314;28;20209;-85
2021/07/30 07:35:43;;;;;;;6.25;5.70;;;;;;;23.56;63.59;95289.84;5014508;28;20281;-85
2021/07/30 07:38:10;;;;;;;6.38;5.88;;;;;;;23.59;63.52;95282.22;5013110;28;20229;-85
2021/07/30 07:40:46;;;;;;;6.22;5.68;;;;;;;23.58;63.59;95285.91;5019593;28;20206;-85
2021/07/30 07:43:13;;;;;;;6.30;5.72;;;;;;;23.66;64.09;95282.75;5015328;28;20209;-85
2021/07/30 07:45:39;;;;;;;6.55;5.55;;;;;;;23.83;63.94;95284.28;5015279;28;20223;-85
2021/07/30 07:48:06;;;;;;;6.25;5.65;;;;;;;23.98;63.93;95285.03;5014243;28;20577;-85
2021/07/30 07:50:32;;;;;;;6.63;6.05;;;;;;;24.06;62.67;95286.31;5015019;28;20215;-86
2021/07/30 07:52:59;;;;;;;6.60;6.00;;;;;;;24.12;62.55;95282.59;5014708;28;20219;-85
2021/07/30 07:55:25;;;;;;;7.03;6.07;;;;;;;24.20;62.39;95281.28;5014539;28;20223;-85
2021/07/30 07:57:53;;;;;;;6.15;5.60;;;;;;;24.26;62.20;95281.00;5013308;28;20612;-87
2021/07/30 08:00:20;;;;;;;6.60;5.97;;;;;;;24.47;62.25;95286.16;5030046;28;20195;-86
2021/07/30 08:02:46;;;;;;;6.05;5.45;;;;;;;24.51;61.60;95290.63;5014096;28;21528;-81
2021/07/30 08:05:13;;;;;;;6.28;5.72;;;;;;;24.47;62.14;95284.31;5014274;28;20234;-85
2021/07/30 08:07:39;;;;;;;6.40;5.80;;;;;;;24.33;61.59;95288.59;5013887;28;20202;-87
2021/07/30 08:10:08;;;;;;;7.82;6.10;;;;;;;24.35;61.24;95289.13;5018904;28;20229;-86
2021/07/30 08:12:42;;;;;;;6.30;5.70;;;;;;;24.47;61.68;95286.16;5014064;28;20207;-87
2021/07/30 08:15:10;;;;;;;6.22;5.72;;;;;;;24.46;61.70;95293.28;5013029;28;20725;-85
2021/07/30 08:17:38;;;;;;;6.10;5.60;;;;;;;24.67;62.02;95293.97;5012937;28;20203;-86
2021/07/30 08:20:05;;;;;;;6.25;5.75;;;;;;;24.89;61.49;95288.31;5013885;28;20203;-87
2021/07/30 08:22:32;;;;;;;6.35;5.85;;;;;;;25.04;60.67;95290.84;5022612;28;20202;-86
2021/07/30 08:24:58;;;;;;;7.40;5.90;;;;;;;25.20;60.89;95291.56;5033791;28;20253;-86
2021/07/30 08:27:25;;;;;;;6.10;5.53;;;;;;;25.22;59.65;95290.19;5033076;28;20205;-85
2021/07/30 08:29:51;;;;;;;6.20;5.70;;;;;;;25.39;60.35;95289.81;5024762;28;20238;-85
2021/07/30 08:32:19;;;;;;;6.00;5.50;;;;;;;25.54;59.12;95289.69;5014136;28;20211;-86
2021/07/30 08:34:47;;;;;;;6.10;5.60;;;;;;;25.69;58.95;95292.19;5017998;28;20221;-86
2021/07/30 08:37:14;;;;;;;5.43;5.03;;;;;;;25.80;58.30;95292.88;5032411;28;20205;-85
2021/07/30 08:39:40;;;;;;;5.85;5.45;;;;;;;25.77;57.19;95282.91;5023776;28;20433;-86
2021/07/30 08:42:10;;;;;;;5.93;5.43;;;;;;;25.95;57.01;95287.47;5027834;28;20203;-85
2021/07/30 08:44:37;;;;;;;6.18;5.70;;;;;;;26.10;57.58;95283.88;5017756;28;20222;-85
2021/07/30 08:47:04;;;;;;;6.03;5.63;;;;;;;26.02;57.14;95289.75;5027999;28;20198;-85
2021/07/30 08:49:35;;;;;;;6.40;5.82;;;;;;;26.15;57.16;95289.88;5022327;28;20229;-86
2021/07/30 08:52:07;;;;;;;6.25;5.65;;;;;;;26.27;56.96;95284.19;5016873;28;20222;-86
2021/07/30 08:54:33;;;;;;;5.90;5.30;;;;;;;26.41;56.76;95276.38;5033037;28;20230;-87
2021/07/30 08:57:00;;;;;;;6.07;5.47;;;;;;;26.57;56.19;95277.75;5028206;28;20203;-87
2021/07/30 08:59:33;;;;;;;5.85;5.40;;;;;;;26.63;55.20;95281.13;5018987;28;20543;-87
2021/07/30 09:01:59;;;;;;;6.10;5.40;;;;;;;26.73;54.94;95270.44;5013425;28;20302;-87
2021/07/30 09:04:26;;;;;;;6.00;5.40;;;;;;;26.79;54.57;95280.63;5026766;28;20218;-86
2021/07/30 09:06:55;;;;;;;6.35;5.70;;;;;;;26.75;54.50;95276.97;5015896;28;20237;-85
2021/07/30 09:09:22;;;;;;;5.97;5.47;;;;;;;26.90;54.02;95269.94;5013885;28;20237;-86
2021/07/30 09:11:54;;;;;;;5.80;5.30;;;;;;;27.06;53.78;95272.06;5017151;28;20202;-86
2021/07/30 09:14:32;;;;;;;5.80;5.35;;;;;;;27.14;53.58;95271.41;5013518;28;20246;-87
2021/07/30 09:16:59;;;;;;;6.38;5.88;;;;;;;27.15;54.08;95259.75;5013063;28;20256;-87
2021/07/30 09:19:25;;;;;;;6.65;5.97;;;;;;;27.25;53.13;95253.53;5013373;28;20202;-86
2021/07/30 09:22:04;;;;;;;6.53;5.93;;;;;;;27.36;53.40;95264.72;5013409;28;20194;-86
2021/07/30 09:24:35;;;;;;;5.65;5.22;;;;;;;27.50;51.07;95254.97;5013230;28;20230;-87
2021/07/30 09:27:02;;;;;;;5.55;5.05;;;;;;;27.56;51.94;95268.88;5012102;28;20203;-87
2021/07/30 09:29:31;;;;;;;5.63;5.22;;;;;;;27.58;50.80;95261.47;5012624;28;20253;-86
2021/07/30 09:32:00;;;;;;;6.43;5.93;;;;;;;27.51;50.15;95264.47;5013406;28;20202;-87
2021/07/30 09:34:29;;;;;;;6.35;5.60;;;;;;;27.62;50.48;95257.94;5016389;28;20218;-87
2021/07/30 09:36:58;;;;;;;5.97;5.47;;;;;;;27.74;49.14;95252.19;5033237;28;20241;-86
2021/07/30 09:39:27;;;;;;;5.68;5.25;;;;;;;27.87;49.28;95253.28;5033821;28;20198;-86
2021/07/30 09:42:05;;;;;;;6.28;5.45;;;;;;;27.93;49.27;95246.78;5032851;28;20217;-86
2021/07/30 09:44:32;;;;;;;5.78;5.28;;;;;;;28.06;48.79;95244.16;5033889;28;20222;-86
2021/07/30 09:47:08;;;;;;;5.85;5.45;;;;;;;28.06;47.51;95233.56;5033887;28;20213;-86
2021/07/30 09:49:50;;;;;;;6.22;5.72;;;;;;;28.22;47.51;95243.88;5031060;28;20221;-86
2021/07/30 09:52:18;;;;;;;6.70;5.13;;;;;;;28.26;48.35;95236.94;5025201;28;20210;-86
2021/07/30 09:54:49;;;;;;;6.22;5.72;;;;;;;28.35;47.36;95238.56;5018554;28;20221;-86
2021/07/30 09:57:17;;;;;;;6.22;5.68;;;;;;;28.43;47.66;95229.94;5032586;28;20217;-86
2021/07/30 09:59:44;;;;;;;5.70;5.25;;;;;;;28.36;47.71;95226.09;5025242;28;20191;-86
2021/07/30 10:02:19;;;;;;;6.03;5.53;;;;;;;28.57;47.48;95232.53;5022730;28;20249;-85
2021/07/30 10:04:48;;;;;;;5.70;5.30;;;;;;;28.59;46.49;95226.94;5013585;28;20284;-86
2021/07/30 10:07:17;;;;;;;5.90;5.40;;;;;;;28.35;46.42;95221.88;5023403;28;20288;-86
2021/07/30 10:09:54;;;;;;;6.22;5.57;;;;;;;28.42;46.20;95217.75;5014235;28;20575;-86
2021/07/30 10:12:22;;;;;;;6.00;5.50;;;;;;;28.65;45.90;95217.81;5034600;28;20206;-86
2021/07/30 10:14:51;;;;;;;6.15;5.55;;;;;;;28.72;45.63;95211.00;5035980;28;20232;-86
2021/07/30 10:17:29;;;;;;;5.75;5.35;;;;;;;28.84;46.10;95210.50;5034965;28;20324;-86
2021/07/30 10:19:58;;;;;;;6.30;5.80;;;;;;;28.91;46.93;95207.41;5033385;28;20289;-85
2021/07/30 10:22:30;;;;;;;7.25;6.00;;;;;;;29.03;45.49;95202.38;5034366;28;20619;-85
2021/07/30 10:24:59;;;;;;;6.07;5.57;;;;;;;29.01;44.20;95207.97;5024910;28;20214;-86
2021/07/30 10:27:27;;;;;;;5.93;5.32;;;;;;;29.15;45.27;95200.72;5014143;28;20206;-86
2021/07/30 10:30:10;;;;;;;6.10;5.60;;;;;;;29.29;44.53;95202.50;5013042;28;20257;-85
2021/07/30 10:32:49;;;;;;;6.22;5.30;;;;;;;29.47;43.82;95197.00;5012789;28;20206;-86
2021/07/30 10:35:17;;;;;;;6.03;5.53;;;;;;;29.57;44.21;95187.22;5022615;28;20218;-86
2021/07/30 10:37:45;;;;;;;6.07;5.03;;;;;;;29.62;44.59;95185.22;5031523;28;20210;-86
2021/07/30 10:40:21;;;;;;;6.60;5.28;;;;;;;29.75;43.37;95189.63;5031924;28;20198;-85
2021/07/30 10:43:05;;;;;;;6.03;5.30;;;;;;;29.86;42.13;95179.50;5024689;28;20201;-86
2021/07/30 10:45:32;;;;;;;5.97;5.43;;;;;;;29.82;41.92;95182.03;5030300;28;20225;-86
2021/07/30 10:48:32;;;;;;;6.63;5.72;;;;;;;29.80;41.89;95176.22;5012288;28;20827;-86
2021/07/30 10:51:02;;;;;;;5.85;5.25;;;;;;;29.87;43.61;95176.53;5023069;28;20210;-87
2021/07/30 10:53:52;;;;;;;5.65;5.22;;;;;;;29.89;43.51;95166.41;5033518;28;20209;-87
2021/07/30 10:56:49;;;;;;;5.80;5.40;;;;;;;29.50;42.96;95171.75;5016201;28;20199;-86
2021/07/30 10:59:19;;;;;;;5.63;5.22;;;;;;;29.27;44.34;95168.31;5024460;28;20205;-86
2021/07/30 11:01:59;;;;;;;7.15;5.85;;;;;;;29.05;44.88;95168.38;5034944;28;20613;-87
2021/07/30 11:04:26;;;;;;;8.50;5.55;;;;;;;29.26;44.68;95169.41;5028550;28;20800;-87
2021/07/30 11:06:57;;;;;;;5.97;5.47;;;;;;;29.59;44.69;95171.78;5023262;28;20222;-85
2021/07/30 11:09:41;;;;;;;7.00;5.82;;;;;;;29.74;44.48;95166.84;5034131;28;20762;-86
2021/07/30 11:12:17;;;;;;;5.82;5.40;;;;;;;29.87;43.05;95159.84;5015073;28;20262;-85
2021/07/30 11:14:45;;;;;;;6.00;5.40;;;;;;;29.83;43.15;95154.34;5030368;28;20218;-86
2021/07/30 11:17:13;;;;;;;5.75;5.25;;;;;;;29.48;41.91;95156.13;5035866;28;20226;-86
2021/07/30 11:19:41;;;;;;;5.45;4.93;;;;;;;29.53;41.67;95161.31;5035735;28;20568;-86
2021/07/30 11:22:09;;;;;;;5.53;5.13;;;;;;;29.76;42.40;95155.91;5036003;28;20190;-86
2021/07/30 11:24:41;;;;;;;6.00;5.47;;;;;;;29.96;42.35;95154.56;5035178;28;20218;-86
2021/07/30 11:27:09;;;;;;;5.40;5.00;;;;;;;29.97;40.21;95148.16;5036521;28;20208;-86
2021/07/30 11:29:38;;;;;;;5.22;4.72;;;;;;;30.15;40.94;95149.78;5035899;28;20226;-86
2021/07/30 11:32:06;;;;;;;4.95;4.65;;;;;;;30.22;42.65;95145.53;5035591;28;20265;-87
2021/07/30 11:34:34;;;;;;;5.68;5.18;;;;;;;30.19;40.01;95145.41;5034985;28;20222;-86
2021/07/30 11:37:02;;;;;;;5.57;5.00;;;;;;;30.23;40.09;95141.00;5028890;28;20202;-86
2021/07/30 11:39:31;;;;;;;5.68;5.18;;;;;;;30.08;40.21;95133.50;5022821;28;20222;-86
2021/07/30 11:41:59;;;;;;;5.53;5.13;;;;;;;30.12;40.25;95140.56;5034946;28;20198;-86